Time;durP1;ratioP1;P1;durP2;ratioP2;P2;SDS_P1;SDS_P2;PMS_P1;PMS_P2;Temp;Humidity;BMP_temperature;BMP_pressure;BME280_temperature;BME280_humidity;BME280_pressure;Samples;Min_cycle;Max_cycle;Signal;HPM_P1;HPM_P2
2022/06/14 00:00:56;;;;;;;4.32;1.85;;;;;;;15.17;46.14;102359.06;4904394;28;114996;-71
2022/06/14 00:03:36;;;;;;;6.18;1.98;;;;;;;15.15;46.08;102362.72;4911468;28;123878;-70
2022/06/14 00:06:24;;;;;;;5.07;1.60;;;;;;;15.11;46.11;102358.44;4909502;28;123798;-70
2022/06/14 00:08:52;;;;;;;5.03;1.77;;;;;;;15.06;45.90;102355.09;4910858;28;114286;-70
2022/06/14 00:11:41;;;;;;;4.63;1.80;;;;;;;15.02;46.28;102342.81;4909771;28;114298;-71
2022/06/14 00:14:10;;;;;;;4.57;1.40;;;;;;;14.96;46.35;102339.44;4896699;28;123865;-70
2022/06/14 00:16:38;;;;;;;6.13;1.80;;;;;;;14.94;46.44;102345.78;4898383;28;123985;-70
2022/06/14 00:19:06;;;;;;;4.40;1.77;;;;;;;14.91;46.41;102345.88;4910218;28;114813;-70
2022/06/14 00:21:35;;;;;;;9.32;2.70;;;;;;;14.86;46.36;102338.06;4911385;28;113785;-69
2022/06/14 00:24:04;;;;;;;6.43;1.90;;;;;;;14.83;46.47;102348.84;4924262;28;124033;-68
2022/06/14 00:26:31;;;;;;;6.25;1.90;;;;;;;14.79;46.54;102347.25;4896457;28;123890;-70
2022/06/14 00:28:59;;;;;;;6.38;1.88;;;;;;;14.76;46.51;102337.53;4910058;28;114357;-71
2022/06/14 00:31:28;;;;;;;4.78;1.65;;;;;;;14.73;46.70;102343.00;4912423;28;113998;-70
2022/06/14 00:33:55;;;;;;;4.43;2.00;;;;;;;14.69;46.56;102346.72;4901715;28;125752;-70
2022/06/14 00:36:28;;;;;;;4.32;1.90;;;;;;;14.64;46.68;102348.69;4906073;28;123720;-69
2022/06/14 00:39:02;;;;;;;9.77;2.10;;;;;;;14.60;47.06;102355.94;4900783;28;114954;-69
2022/06/14 00:41:39;;;;;;;8.03;1.97;;;;;;;14.55;46.89;102355.19;4910168;28;114235;-69
2022/06/14 00:44:13;;;;;;;8.95;1.98;;;;;;;14.51;47.26;102358.91;4912325;28;124056;-70
2022/06/14 00:47:09;;;;;;;5.38;1.90;;;;;;;14.45;47.13;102358.25;4909347;28;123799;-69
2022/06/14 00:49:50;;;;;;;4.50;1.90;;;;;;;14.42;47.19;102353.91;4897388;28;115818;-69
2022/06/14 00:52:19;;;;;;;4.82;1.80;;;;;;;14.40;47.27;102361.09;4898035;28;114758;-69
2022/06/14 00:54:53;;;;;;;5.32;1.80;;;;;;;14.36;47.51;102360.34;4927335;28;123371;-68
2022/06/14 00:57:26;;;;;;;4.82;2.03;;;;;;;14.34;47.60;102362.19;4905382;28;124009;-68
2022/06/14 01:00:01;;;;;;;3.88;2.17;;;;;;;14.32;47.63;102357.88;4903453;28;115561;-69
2022/06/14 01:02:31;;;;;;;6.05;2.10;;;;;;;14.30;47.62;102357.06;4906254;28;114402;-68
2022/06/14 01:05:04;;;;;;;7.45;2.20;;;;;;;14.28;47.80;102350.88;4910996;28;124669;-68
2022/06/14 01:07:35;;;;;;;7.15;2.28;;;;;;;14.26;47.98;102352.72;4908177;28;123801;-68
2022/06/14 01:10:10;;;;;;;6.32;2.30;;;;;;;14.24;48.16;102354.59;4893010;28;114299;-71
2022/06/14 01:12:42;;;;;;;9.48;2.33;;;;;;;14.21;47.97;102351.09;4904944;28;114437;-69
2022/06/14 01:15:24;;;;;;;5.72;2.13;;;;;;;14.21;48.25;102351.09;4902083;28;123877;-68
2022/06/14 01:17:58;;;;;;;8.60;2.88;;;;;;;14.18;48.26;102345.91;4905954;28;123968;-69
2022/06/14 01:20:28;;;;;;;8.35;2.28;;;;;;;14.18;48.31;102356.56;4905453;28;114289;-69
2022/06/14 01:22:55;;;;;;;6.45;2.40;;;;;;;14.16;48.61;102347.72;4913554;28;114024;-70
2022/06/14 01:25:25;;;;;;;6.40;2.22;;;;;;;14.15;48.56;102338.00;4912807;28;124743;-69
2022/06/14 01:27:53;;;;;;;7.43;2.97;;;;;;;14.13;48.53;102339.88;4910320;28;124052;-69
2022/06/14 01:30:25;;;;;;;6.63;2.10;;;;;;;14.12;48.63;102340.78;4915047;28;114159;-69
2022/06/14 01:33:00;;;;;;;9.48;3.17;;;;;;;14.10;48.52;102342.63;4911839;28;113764;-69
2022/06/14 01:35:35;;;;;;;5.80;2.25;;;;;;;14.08;48.66;102336.50;4912633;28;123892;-69
2022/06/14 01:38:06;;;;;;;5.47;2.43;;;;;;;14.06;48.55;102335.69;4911582;28;123745;-68
2022/06/14 01:40:40;;;;;;;6.80;2.28;;;;;;;14.04;48.65;102337.53;4915299;28;115381;-68
2022/06/14 01:43:24;;;;;;;6.13;1.92;;;;;;;14.01;48.49;102332.31;4912627;28;114941;-69
2022/06/14 01:46:05;;;;;;;4.85;2.00;;;;;;;13.97;48.49;102328.00;4912279;28;124162;-68
2022/06/14 01:48:45;;;;;;;6.15;2.28;;;;;;;13.95;48.47;102332.53;4911344;28;123827;-69
2022/06/14 01:54:19;;;;;;;5.53;1.90;;;;;;;13.87;48.22;102318.63;4902376;28;113966;-69
2022/06/14 01:56:58;;;;;;;4.70;1.85;;;;;;;13.83;48.45;102320.53;4913196;28;124230;-68
2022/06/14 02:00:00;;;;;;;5.60;2.30;;;;;;;13.77;48.46;102324.25;4913073;28;124618;-68
2022/06/14 02:02:47;;;;;;;5.85;2.15;;;;;;;13.71;48.70;102319.16;4912571;28;115357;-68
2022/06/14 02:05:28;;;;;;;6.43;2.00;;;;;;;13.65;48.74;102324.66;4912365;28;113609;-68
2022/06/14 02:08:20;;;;;;;7.18;2.53;;;;;;;13.61;48.78;102328.38;4911037;28;123974;-68
2022/06/14 02:11:22;;;;;;;6.25;2.35;;;;;;;13.56;48.95;102324.97;4918610;28;123461;-70
2022/06/14 02:13:54;;;;;;;5.03;2.50;;;;;;;13.53;48.98;102317.97;4906439;28;114053;-70
2022/06/14 02:16:29;;;;;;;5.63;2.42;;;;;;;13.50;49.23;102319.88;4897152;28;113600;-70
2022/06/14 02:19:12;;;;;;;5.22;2.20;;;;;;;13.48;49.14;102316.41;4898642;28;124535;-70
2022/06/14 02:21:43;;;;;;;6.93;2.47;;;;;;;13.47;49.24;102325.28;4912373;28;124472;-70
2022/06/14 02:24:46;;;;;;;7.47;2.70;;;;;;;13.44;49.53;102319.16;4913276;28;114131;-70
2022/06/14 02:27:27;;;;;;;3.80;1.98;;;;;;;13.41;49.29;102324.59;4898169;28;113975;-70
2022/06/14 02:29:59;;;;;;;6.20;2.22;;;;;;;13.38;49.14;102322.03;4907512;28;124096;-71
2022/06/14 02:32:41;;;;;;;4.35;2.20;;;;;;;13.35;49.29;102316.78;4911310;28;124604;-71
2022/06/14 02:35:32;;;;;;;7.88;3.08;;;;;;;13.31;49.44;102312.50;4906732;28;115533;-71
2022/06/14 02:38:15;;;;;;;5.20;2.47;;;;;;;13.30;49.63;102312.50;4899729;28;114819;-70
2022/06/14 02:40:49;;;;;;;4.90;2.58;;;;;;;13.26;49.73;102311.78;4904343;28;124679;-68
2022/06/14 02:43:23;;;;;;;6.95;2.20;;;;;;;13.24;49.76;102302.94;4908954;28;123840;-69
2022/06/14 02:45:58;;;;;;;4.93;2.20;;;;;;;13.21;49.85;102297.72;4924297;28;114261;-68
2022/06/14 02:48:34;;;;;;;6.68;2.20;;;;;;;13.18;49.92;102313.78;4881917;28;113892;-68
2022/06/14 02:51:05;;;;;;;5.35;2.50;;;;;;;13.14;49.97;102306.81;4912376;28;124829;-70
2022/06/14 02:53:55;;;;;;;7.18;2.60;;;;;;;13.12;49.97;102308.66;4911694;28;124407;-70
2022/06/14 02:56:29;;;;;;;4.95;2.33;;;;;;;13.09;49.87;102308.75;4911895;28;114362;-71
2022/06/14 02:59:05;;;;;;;4.03;2.20;;;;;;;13.05;49.94;102303.56;4906454;28;114322;-71
2022/06/14 03:01:36;;;;;;;5.60;2.22;;;;;;;13.03;49.85;102301.84;4912310;28;124575;-71
2022/06/14 03:04:40;;;;;;;6.60;2.50;;;;;;;12.99;49.93;102298.41;4912710;28;124707;-71
2022/06/14 03:07:17;;;;;;;4.95;2.40;;;;;;;12.97;50.02;102305.56;4881405;28;114970;-71
2022/06/14 03:09:46;;;;;;;5.57;1.92;;;;;;;12.94;49.74;102300.38;4907665;28;114316;-70
2022/06/14 03:12:28;;;;;;;6.15;2.13;;;;;;;12.90;50.07;102309.34;4902193;28;124598;-70
2022/06/14 03:15:07;;;;;;;6.55;2.40;;;;;;;12.85;50.00;102305.97;4910969;28;123033;-70
2022/06/14 03:18:24;;;;;;;6.10;2.03;;;;;;;12.80;50.02;102302.56;4910580;28;114270;-71
2022/06/14 03:21:10;;;;;;;6.82;2.40;;;;;;;12.73;49.99;102295.69;4897860;28;113909;-70
2022/06/14 03:23:58;;;;;;;7.07;2.45;;;;;;;12.66;50.00;102295.91;4909693;28;122818;-70
2022/06/14 03:26:45;;;;;;;6.55;2.60;;;;;;;12.64;50.09;102311.03;4909448;28;124908;-70
2022/06/14 03:29:21;;;;;;;6.93;2.78;;;;;;;12.60;50.54;102306.72;4910063;28;115188;-70
2022/06/14 03:32:02;;;;;;;4.60;2.60;;;;;;;12.60;50.37;102300.50;4911961;28;114922;-71
2022/06/14 03:34:38;;;;;;;7.18;2.97;;;;;;;12.58;50.45;102308.56;4911231;28;125347;-70
2022/06/14 03:37:05;;;;;;;5.35;2.60;;;;;;;12.56;50.55;102310.34;4907266;28;125333;-71
2022/06/14 03:39:36;;;;;;;4.50;2.30;;;;;;;12.54;50.59;102312.19;4903442;28;114322;-68
2022/06/14 03:42:04;;;;;;;5.78;2.22;;;;;;;12.55;50.54;102308.63;4913717;28;113924;-68
2022/06/14 03:44:33;;;;;;;8.65;2.55;;;;;;;12.55;50.53;102319.28;4902353;28;123813;-68
2022/06/14 03:47:09;;;;;;;3.55;2.10;;;;;;;12.54;50.61;102306.88;4906470;28;124748;-68
2022/06/14 03:49:44;;;;;;;5.68;2.65;;;;;;;12.53;51.00;102310.47;4912801;28;114680;-68
2022/06/14 03:52:43;;;;;;;5.10;2.60;;;;;;;12.52;50.72;102314.03;4909031;28;114266;-68
2022/06/14 03:55:50;;;;;;;5.38;2.25;;;;;;;12.52;50.77;102314.03;4892424;28;124725;-70
2022/06/14 03:58:39;;;;;;;7.22;2.30;;;;;;;12.51;50.70;102304.34;4899044;28;123819;-70
2022/06/14 04:01:12;;;;;;;7.07;2.60;;;;;;;12.49;50.68;102314.16;4898788;28;114173;-70
2022/06/14 04:04:06;;;;;;;5.75;2.60;;;;;;;12.48;50.97;102316.84;4910160;28;113659;-71
2022/06/14 04:07:13;;;;;;;6.28;2.67;;;;;;;12.49;50.83;102313.25;4903623;28;124252;-70
2022/06/14 04:09:46;;;;;;;7.40;2.78;;;;;;;12.50;50.86;102305.25;4887834;28;123801;-68
2022/06/14 04:12:24;;;;;;;6.25;2.70;;;;;;;12.51;51.30;102312.31;4912468;28;113254;-68
2022/06/14 04:14:59;;;;;;;6.95;2.70;;;;;;;12.52;51.20;102297.22;4911585;28;114090;-68
2022/06/14 04:17:44;;;;;;;5.97;2.30;;;;;;;12.54;51.25;102306.88;4910513;28;124030;-68
2022/06/14 04:20:37;;;;;;;8.80;2.85;;;;;;;12.58;51.34;102312.97;4904704;28;124033;-68
2022/06/14 04:23:11;;;;;;;6.97;2.20;;;;;;;12.58;51.15;102315.63;4904821;28;115242;-68
2022/06/14 04:25:45;;;;;;;6.22;2.35;;;;;;;12.58;51.64;102313.88;4910781;28;114912;-68
2022/06/14 04:28:22;;;;;;;5.47;2.25;;;;;;;12.59;51.72;102315.59;4909568;28;124002;-68
2022/06/14 04:30:59;;;;;;;6.93;2.65;;;;;;;12.62;51.84;102315.53;4911907;28;123872;-70
2022/06/14 04:33:33;;;;;;;4.50;2.47;;;;;;;12.65;51.81;102320.72;4910270;28;114703;-70
2022/06/14 04:36:04;;;;;;;4.70;2.60;;;;;;;12.68;51.96;102318.88;4908549;28;113679;-70
2022/06/14 04:38:40;;;;;;;7.13;2.90;;;;;;;12.71;52.18;102313.50;4907912;28;123973;-70
2022/06/14 04:41:18;;;;;;;7.32;3.00;;;;;;;12.75;52.25;102326.66;4910724;28;123762;-70
2022/06/14 04:43:54;;;;;;;9.05;3.20;;;;;;;12.80;52.39;102322.03;4914810;28;114237;-70
2022/06/14 04:46:49;;;;;;;5.95;3.10;;;;;;;12.89;52.66;102328.03;4909897;28;113757;-70
2022/06/14 04:49:21;;;;;;;5.22;2.65;;;;;;;13.01;53.22;102327.63;4909728;28;123931;-70
2022/06/14 04:51:55;;;;;;;6.15;2.88;;;;;;;13.15;53.33;102324.53;4908853;28;123785;-70
2022/06/14 04:54:40;;;;;;;5.77;3.20;;;;;;;13.30;53.27;102334.72;4904574;28;114127;-70
2022/06/14 04:57:45;;;;;;;5.57;3.00;;;;;;;13.49;53.06;102332.31;4914145;28;113069;-70
2022/06/14 05:00:19;;;;;;;6.40;3.38;;;;;;;13.66;53.23;102326.44;4889597;28;123862;-71
2022/06/14 05:03:08;;;;;;;6.33;3.00;;;;;;;13.81;53.01;102325.91;4912813;28;124239;-71
2022/06/14 05:05:42;;;;;;;8.10;3.70;;;;;;;13.96;53.07;102328.94;4915601;28;115019;-71
2022/06/14 05:08:48;;;;;;;7.05;3.47;;;;;;;14.08;52.70;102328.50;4914040;28;113177;-71
2022/06/14 05:11:23;;;;;;;9.13;3.90;;;;;;;14.19;52.67;102326.31;4856577;28;124504;-71
2022/06/14 05:14:04;;;;;;;9.13;3.53;;;;;;;14.29;52.83;102320.66;4898590;28;123746;-72
2022/06/14 05:16:46;;;;;;;7.88;3.80;;;;;;;14.40;52.60;102319.31;4892684;28;115521;-71
2022/06/14 05:19:23;;;;;;;7.55;4.07;;;;;;;14.50;52.62;102324.31;4893759;28;114903;-71
2022/06/14 05:22:04;;;;;;;12.75;4.55;;;;;;;14.59;52.81;102330.19;4911395;28;124384;-72
2022/06/14 05:24:32;;;;;;;8.43;3.97;;;;;;;14.72;52.55;102335.06;4913128;28;122719;-71
2022/06/14 05:27:11;;;;;;;7.85;3.67;;;;;;;14.79;52.82;102336.56;4913742;28;114247;-69
2022/06/14 05:29:46;;;;;;;9.40;4.20;;;;;;;14.88;52.65;102341.56;4915023;28;113980;-70
2022/06/14 05:32:23;;;;;;;9.27;4.53;;;;;;;14.97;52.64;102333.19;4914077;28;122853;-70
2022/06/14 05:35:30;;;;;;;10.50;4.28;;;;;;;15.10;52.83;102335.34;4900738;28;122728;-69
2022/06/14 05:38:29;;;;;;;10.38;3.85;;;;;;;15.26;52.64;102344.47;4913991;28;114687;-68
2022/06/14 05:41:01;;;;;;;11.15;4.20;;;;;;;15.40;52.87;102348.38;4912852;28;113847;-68
2022/06/14 05:43:44;;;;;;;12.48;4.43;;;;;;;15.53;52.84;102344.28;4911775;28;124198;-68
2022/06/14 05:46:28;;;;;;;12.63;4.45;;;;;;;15.67;52.88;102344.56;4912209;28;124015;-71
2022/06/14 05:49:08;;;;;;;8.87;4.67;;;;;;;15.82;52.86;102347.53;4905916;28;115025;-69
2022/06/14 05:51:45;;;;;;;11.90;4.60;;;;;;;15.94;52.80;102339.88;4907661;28;113814;-70
2022/06/14 05:54:20;;;;;;;13.15;4.35;;;;;;;16.09;52.88;102338.31;4899927;28;124088;-69
2022/06/14 05:56:59;;;;;;;14.27;4.40;;;;;;;16.22;52.75;102337.75;4911211;28;124152;-70
2022/06/14 05:59:47;;;;;;;13.00;4.68;;;;;;;16.33;52.76;102340.81;4913812;28;114794;-70
2022/06/14 06:02:17;;;;;;;13.35;5.05;;;;;;;16.46;52.91;102339.34;4898463;28;114711;-72
2022/06/14 06:04:55;;;;;;;9.57;4.07;;;;;;;16.60;52.87;102338.69;4905134;28;124154;-69
2022/06/14 06:07:36;;;;;;;9.43;3.78;;;;;;;16.75;52.50;102342.47;4906829;28;124188;-71
2022/06/14 06:10:29;;;;;;;10.70;4.10;;;;;;;16.89;52.35;102345.38;4910575;28;116643;-69
2022/06/14 06:13:01;;;;;;;12.63;4.20;;;;;;;17.04;52.20;102348.25;4911203;28;114932;-69
2022/06/14 06:16:14;;;;;;;11.73;4.57;;;;;;;17.18;52.03;102340.44;4925497;28;124263;-69
2022/06/14 06:19:00;;;;;;;10.27;3.75;;;;;;;17.32;51.82;102345.09;4893899;28;123728;-69
2022/06/14 06:21:41;;;;;;;9.30;4.30;;;;;;;17.43;51.74;102339.22;4897707;28;113948;-67
2022/06/14 06:24:21;;;;;;;9.00;4.32;;;;;;;17.54;51.73;102342.22;4914267;28;114083;-67
2022/06/14 06:26:59;;;;;;;8.32;2.92;;;;;;;17.67;51.36;102337.97;4911855;28;124353;-67
2022/06/14 06:29:37;;;;;;;6.05;2.83;;;;;;;17.82;51.21;102340.78;4903883;28;123766;-69
2022/06/14 06:32:05;;;;;;;9.10;3.45;;;;;;;17.92;50.97;102339.41;4905480;28;113152;-69
2022/06/14 06:34:34;;;;;;;8.98;3.45;;;;;;;18.05;50.96;102343.19;4908684;28;113865;-69
2022/06/14 06:37:13;;;;;;;8.07;3.05;;;;;;;18.19;50.76;102345.13;4907335;28;123837;-69
2022/06/14 06:39:43;;;;;;;8.80;3.28;;;;;;;18.36;50.68;102352.28;4911632;28;124042;-69
2022/06/14 06:42:21;;;;;;;9.10;3.03;;;;;;;18.51;50.45;102339.84;4911591;28;114399;-69
2022/06/14 06:45:09;;;;;;;7.95;2.75;;;;;;;18.68;50.13;102346.97;4911133;28;114151;-69
2022/06/14 06:47:42;;;;;;;7.25;2.83;;;;;;;18.88;49.69;102350.41;4910637;28;124677;-69
2022/06/14 06:50:17;;;;;;;8.48;2.85;;;;;;;19.04;48.58;102353.94;4912106;28;122870;-69
2022/06/14 06:52:50;;;;;;;5.53;2.75;;;;;;;19.19;48.66;102352.22;4901320;28;114208;-69
2022/06/14 06:55:26;;;;;;;4.90;2.00;;;;;;;19.36;48.33;102351.22;4913611;28;114317;-69
2022/06/14 06:57:57;;;;;;;5.15;1.90;;;;;;;19.53;48.21;102350.25;4912744;28;124250;-69
2022/06/14 07:00:26;;;;;;;4.60;2.17;;;;;;;19.69;47.37;102355.59;4913005;28;123850;-69
2022/06/14 07:03:15;;;;;;;5.00;2.30;;;;;;;19.83;46.99;102352.97;4910803;28;115230;-68
2022/06/14 07:05:49;;;;;;;7.00;1.90;;;;;;;19.98;46.04;102352.03;4894856;28;114980;-68
2022/06/14 07:08:31;;;;;;;6.32;1.58;;;;;;;20.10;45.80;102350.44;4900810;28;124343;-68
2022/06/14 07:10:58;;;;;;;6.47;1.75;;;;;;;20.26;45.45;102355.72;4911550;28;122774;-68
2022/06/14 07:13:35;;;;;;;5.78;1.65;;;;;;;20.38;45.12;102354.97;4910529;28;114403;-69
2022/06/14 07:16:09;;;;;;;11.07;1.90;;;;;;;20.50;44.99;102352.47;4896869;28;115329;-69
2022/06/14 07:18:46;;;;;;;5.05;1.20;;;;;;;20.62;44.34;102351.72;4911582;28;123070;-69
2022/06/14 07:21:20;;;;;;;3.50;1.08;;;;;;;20.71;43.49;102350.28;4908463;28;124043;-69
2022/06/14 07:23:57;;;;;;;3.55;1.30;;;;;;;20.80;43.55;102353.25;4900993;28;114523;-69
2022/06/14 07:26:52;;;;;;;3.85;1.73;;;;;;;20.87;43.57;102344.75;4911983;28;114096;-69
2022/06/14 07:29:41;;;;;;;4.07;1.33;;;;;;;20.97;43.37;102345.91;4910171;28;123902;-69
2022/06/14 07:32:28;;;;;;;6.22;1.73;;;;;;;21.09;42.87;102350.47;4900265;28;124492;-69
2022/06/14 07:34:57;;;;;;;4.43;1.40;;;;;;;21.20;42.34;102342.53;4909450;28;114192;-69
2022/06/14 07:37:33;;;;;;;4.82;1.10;;;;;;;21.30;42.39;102337.41;4908800;28;113186;-69
2022/06/14 07:40:22;;;;;;;4.80;1.55;;;;;;;21.41;42.47;102336.69;4895191;28;124827;-69
2022/06/14 07:43:12;;;;;;;5.78;2.05;;;;;;;21.49;42.55;102337.09;4911664;28;123974;-69
2022/06/14 07:45:43;;;;;;;7.43;1.48;;;;;;;21.61;41.77;102343.47;4898837;28;114207;-69
2022/06/14 07:48:22;;;;;;;3.95;1.40;;;;;;;21.70;41.06;102334.75;4909393;28;114434;-69
2022/06/14 07:50:59;;;;;;;6.95;1.38;;;;;;;21.77;40.80;102340.59;4915127;28;124743;-69
2022/06/14 07:53:35;;;;;;;4.53;1.75;;;;;;;21.85;40.60;102332.84;4896770;28;123813;-69
2022/06/14 07:56:17;;;;;;;6.47;1.88;;;;;;;21.92;40.63;102328.72;4891026;28;115050;-69
2022/06/14 07:59:05;;;;;;;4.72;1.13;;;;;;;21.97;40.03;102331.97;4893706;28;114900;-68
2022/06/14 08:01:50;;;;;;;4.90;1.20;;;;;;;22.03;40.55;102329.81;4899296;28;124507;-67
2022/06/14 08:04:40;;;;;;;;;;;;;;;22.10;41.48;102336.53;4900181;28;123980;-69
2022/06/14 08:07:18;;;;;;;3.70;1.60;;;;;;;22.24;40.95;102339.09;4899021;28;114683;-69
2022/06/14 08:10:09;;;;;;;6.55;1.60;;;;;;;22.32;40.75;102334.06;4913662;28;112954;-68
2022/06/14 08:12:50;;;;;;;5.38;1.60;;;;;;;22.42;40.57;102328.00;4912406;28;124321;-68
2022/06/14 08:15:31;;;;;;;5.80;1.40;;;;;;;22.47;40.39;102324.00;4910704;28;124050;-68
2022/06/14 08:18:17;;;;;;;5.47;1.58;;;;;;;22.53;40.20;102328.09;4924164;28;114368;-67
2022/06/14 08:20:47;;;;;;;;;;;;;;;22.51;40.94;102328.22;4899143;28;114555;-68
2022/06/14 08:23:46;;;;;;;5.78;1.45;;;;;;;22.55;39.90;102331.56;4923045;28;124432;-68
2022/06/14 08:26:24;;;;;;;6.88;1.42;;;;;;;22.57;40.19;102329.59;4885714;28;123804;-69
2022/06/14 08:29:14;;;;;;;5.72;1.55;;;;;;;22.58;39.91;102323.22;4913752;28;113682;-69
2022/06/14 08:32:02;;;;;;;6.03;1.50;;;;;;;22.59;39.41;102316.00;4892492;28;113989;-69
2022/06/14 08:34:36;;;;;;;3.97;1.40;;;;;;;22.62;39.65;102322.03;4899909;28;123916;-69
2022/06/14 08:37:30;;;;;;;5.35;1.63;;;;;;;22.69;39.87;102309.78;4894386;28;125002;-69
2022/06/14 08:40:07;;;;;;;4.60;1.55;;;;;;;22.79;39.15;102317.22;4908122;28;114227;-68
2022/06/14 08:43:11;;;;;;;3.72;1.30;;;;;;;22.83;39.56;102313.31;4904357;28;114253;-68
2022/06/14 08:45:44;;;;;;;4.63;1.60;;;;;;;22.86;39.61;102323.91;4907768;28;123863;-68
2022/06/14 08:48:33;;;;;;;4.85;1.58;;;;;;;22.85;39.51;102322.16;4897690;28;124153;-68
2022/06/14 08:51:00;;;;;;;5.57;1.70;;;;;;;22.81;39.12;102323.38;4912379;28;115619;-67
2022/06/14 08:53:58;;;;;;;5.63;1.50;;;;;;;22.70;38.73;102313.38;4912238;28;114920;-68
2022/06/14 08:56:50;;;;;;;6.97;1.60;;;;;;;22.58;38.69;102319.66;4913656;28;122930;-68
2022/06/14 08:59:32;;;;;;;4.68;1.30;;;;;;;22.51;39.23;102313.84;4904164;28;123782;-68
2022/06/14 09:02:25;;;;;;;4.15;1.45;;;;;;;22.58;38.72;102315.09;4909931;28;114281;-67
2022/06/14 09:04:52;;;;;;;5.47;1.45;;;;;;;22.61;38.43;102308.63;4907669;28;114669;-68
2022/06/14 09:07:50;;;;;;;8.25;1.50;;;;;;;22.62;38.23;102318.44;4904159;28;123629;-68
2022/06/14 09:10:56;;;;;;;4.47;1.52;;;;;;;22.63;38.47;102312.94;4905445;28;124500;-68
2022/06/14 09:13:35;;;;;;;4.47;1.50;;;;;;;22.72;38.67;102306.88;4893032;28;114170;-69
2022/06/14 09:16:20;;;;;;;5.53;1.50;;;;;;;22.87;38.03;102309.44;4893875;28;115407;-68
2022/06/14 09:18:54;;;;;;;3.72;1.35;;;;;;;22.98;38.24;102309.50;4910850;28;124764;-69
2022/06/14 09:21:58;;;;;;;5.80;1.90;;;;;;;23.09;38.72;102309.59;4910712;28;123816;-68
2022/06/14 09:24:58;;;;;;;5.72;1.63;;;;;;;23.20;38.83;102305.19;4911525;28;114298;-68
2022/06/14 09:28:04;;;;;;;3.88;1.70;;;;;;;23.27;38.72;102306.47;4893537;28;113077;-68
2022/06/14 09:30:40;;;;;;;3.93;1.33;;;;;;;23.36;38.59;102311.19;4873864;28;1116619;-68
2022/06/14 09:33:38;;;;;;;6.43;1.80;;;;;;;23.44;38.66;102303.31;4911898;28;123937;-68
2022/06/14 09:36:15;;;;;;;5.63;1.80;;;;;;;23.50;38.51;102305.56;4912260;28;114304;-68
2022/06/14 09:39:00;;;;;;;4.32;1.63;;;;;;;23.55;38.78;102298.97;4912694;28;113759;-67
2022/06/14 09:42:11;;;;;;;5.57;1.80;;;;;;;23.50;38.04;102302.84;4899713;28;123379;-68
2022/06/14 09:44:57;;;;;;;2.88;1.40;;;;;;;23.49;38.09;102306.56;4915059;28;123715;-67
2022/06/14 09:47:58;;;;;;;4.50;1.73;;;;;;;23.52;38.26;102295.47;4912339;28;114673;-67
2022/06/14 09:50:51;;;;;;;4.55;1.48;;;;;;;23.62;38.17;102294.78;4874720;28;114833;-67
2022/06/14 09:53:53;;;;;;;5.80;1.52;;;;;;;23.68;38.18;102300.59;4902349;28;123838;-67
2022/06/14 09:56:41;;;;;;;6.88;1.58;;;;;;;23.74;38.43;102292.97;4912309;28;123862;-68
2022/06/14 09:59:37;;;;;;;5.30;1.63;;;;;;;23.80;37.76;102285.25;4907103;28;114069;-68
2022/06/14 10:02:31;;;;;;;3.70;1.33;;;;;;;23.88;36.82;102288.25;4907388;28;113861;-68
2022/06/14 10:05:01;;;;;;;3.80;1.23;;;;;;;23.95;37.55;102279.63;4896313;28;123890;-68
2022/06/14 10:07:47;;;;;;;5.97;1.58;;;;;;;24.05;38.01;102286.03;4896574;28;123824;-68
2022/06/14 10:10:46;;;;;;;6.35;1.42;;;;;;;24.14;37.33;102274.47;4914343;28;115116;-68
2022/06/14 10:13:34;;;;;;;5.93;1.80;;;;;;;24.19;37.84;102277.66;4898983;28;113816;-68
2022/06/14 10:16:32;;;;;;;6.40;1.90;;;;;;;24.16;37.39;102272.50;4913463;28;124172;-69
2022/06/14 10:19:19;;;;;;;4.03;1.95;;;;;;;24.14;37.14;102269.03;4911519;28;123949;-69
2022/06/14 10:21:53;;;;;;;6.25;1.48;;;;;;;24.15;36.79;102269.91;4899495;28;114919;-68
2022/06/14 10:24:37;;;;;;;4.40;1.80;;;;;;;24.13;36.59;102256.50;4913689;28;114305;-68
2022/06/14 10:30:40;;;;;;;3.83;1.33;;;;;;;24.22;37.10;102261.19;4894570;28;124801;-68
2022/06/14 10:33:25;;;;;;;3.10;1.40;;;;;;;24.30;37.55;102252.44;4908260;28;114279;-68
2022/06/14 10:35:55;;;;;;;6.20;1.60;;;;;;;24.44;37.14;102254.00;4912423;28;113967;-68
2022/06/14 10:38:37;;;;;;;4.50;1.45;;;;;;;24.55;37.03;102255.88;4912517;28;124238;-70
2022/06/14 10:41:12;;;;;;;4.57;1.55;;;;;;;24.65;36.30;102252.25;4911423;28;124422;-70
2022/06/14 10:43:59;;;;;;;4.50;1.30;;;;;;;24.71;36.33;102250.03;4910838;28;115156;-69
2022/06/14 10:46:30;;;;;;;3.42;1.55;;;;;;;24.74;34.97;102245.22;4913114;28;114845;-68
2022/06/14 10:49:12;;;;;;;4.32;1.45;;;;;;;24.68;35.34;102235.78;4911732;28;124107;-68
2022/06/14 10:52:54;;;;;;;3.67;1.30;;;;;;;24.60;34.99;102235.56;4910427;28;124694;-68
2022/06/14 10:56:00;;;;;;;4.28;1.40;;;;;;;24.61;36.27;102229.13;4833539;29;114400;-68
2022/06/14 10:59:04;;;;;;;2.85;1.35;;;;;;;24.67;36.02;102236.75;4864976;28;114568;-70
2022/06/14 11:01:31;;;;;;;4.35;1.38;;;;;;;24.77;35.85;102227.84;4913334;28;124571;-67
2022/06/14 11:04:23;;;;;;;4.20;1.60;;;;;;;24.82;34.85;102225.63;4910516;28;123984;-68
2022/06/14 11:07:09;;;;;;;7.05;1.40;;;;;;;24.83;35.33;102227.34;4911088;28;114948;-68
2022/06/14 11:10:03;;;;;;;4.30;1.30;;;;;;;24.83;34.67;102220.06;4912019;28;113876;-67
2022/06/14 11:12:49;;;;;;;3.10;1.33;;;;;;;24.82;35.23;102212.91;4909457;28;124222;-67
2022/06/14 11:15:49;;;;;;;4.07;1.40;;;;;;;24.84;35.52;102212.81;4891776;28;124791;-67
2022/06/14 11:18:35;;;;;;;5.45;1.30;;;;;;;24.91;35.64;102208.59;4891198;28;114303;-68
2022/06/14 11:21:39;;;;;;;3.25;1.20;;;;;;;24.94;34.91;102205.63;4906856;28;113712;-67
2022/06/14 11:24:16;;;;;;;3.67;1.50;;;;;;;24.95;34.69;102199.19;4898955;28;124995;-67
2022/06/14 11:27:00;;;;;;;4.82;1.50;;;;;;;24.94;34.20;102202.91;4912670;28;124767;-68
2022/06/14 11:29:51;;;;;;;3.30;1.10;;;;;;;24.87;33.55;102197.16;4910913;28;114596;-67
2022/06/14 11:32:51;;;;;;;4.78;1.20;;;;;;;24.78;33.53;102191.66;4902793;28;113798;-67
2022/06/14 11:35:31;;;;;;;7.75;1.58;;;;;;;24.74;34.55;102195.63;4890700;28;123653;-67
2022/06/14 11:38:25;;;;;;;3.40;1.20;;;;;;;24.80;34.38;102189.66;4909654;28;123959;-67
2022/06/14 11:40:59;;;;;;;3.83;1.20;;;;;;;24.85;33.56;102182.00;4911937;28;114416;-67
2022/06/14 11:43:46;;;;;;;3.50;1.08;;;;;;;24.87;34.30;102185.44;4907110;28;114845;-67
2022/06/14 11:47:02;;;;;;;5.85;1.23;;;;;;;24.95;34.90;102182.94;4911597;28;123269;-67
2022/06/14 11:49:37;;;;;;;2.28;1.02;;;;;;;25.06;35.28;102174.75;4888202;28;123834;-67
2022/06/14 11:52:37;;;;;;;2.92;1.20;;;;;;;25.15;34.59;102166.84;4923682;28;114594;-67
2022/06/14 11:55:28;;;;;;;3.67;1.20;;;;;;;25.28;34.61;102167.53;4877561;28;114326;-69
2022/06/14 11:58:02;;;;;;;4.20;1.50;;;;;;;25.35;34.21;102175.97;4912096;28;124727;-67
2022/06/14 12:00:42;;;;;;;5.65;1.55;;;;;;;25.37;33.74;102166.72;4913050;28;123907;-67
2022/06/14 12:03:38;;;;;;;4.47;1.25;;;;;;;25.42;33.58;102166.31;4910689;28;114586;-67
2022/06/14 12:06:20;;;;;;;5.15;1.25;;;;;;;25.44;33.47;102157.03;4893724;28;113967;-67
2022/06/14 12:09:10;;;;;;;5.20;1.33;;;;;;;25.42;32.50;102169.88;4902318;28;123973;-67
2022/06/14 12:11:49;;;;;;;3.95;1.30;;;;;;;25.35;31.78;102167.84;4899769;28;124225;-67
2022/06/14 12:14:51;;;;;;;4.32;1.08;;;;;;;25.28;32.54;102162.09;4912984;28;114187;-67
2022/06/14 12:17:41;;;;;;;3.25;1.35;;;;;;;25.34;33.07;102166.97;4899303;28;113869;-67
2022/06/14 12:20:11;;;;;;;2.65;0.98;;;;;;;25.45;33.53;102164.19;4899169;28;124172;-67
2022/06/14 12:23:02;;;;;;;5.93;1.45;;;;;;;25.54;33.00;102157.09;4895480;28;123964;-67
2022/06/14 12:29:04;;;;;;;4.18;1.40;;;;;;;25.57;33.11;102158.69;4899284;28;114411;-67
2022/06/14 12:31:45;;;;;;;6.18;1.38;;;;;;;25.56;32.82;102154.22;4912394;28;124170;-67
2022/06/14 12:34:25;;;;;;;4.55;1.20;;;;;;;25.61;33.59;102146.56;4911109;28;123660;-67